createdAt,value
2018-12-16T00:00:19.455Z,15.80
2018-12-16T00:02:47.034Z,15.57
2018-12-16T00:05:14.545Z,15.53
2018-12-16T00:07:42.135Z,15.27
2018-12-16T00:10:09.713Z,15.80
2018-12-16T00:12:37.240Z,15.83
2018-12-16T00:15:05.044Z,16.57
2018-12-16T00:17:32.570Z,15.90
2018-12-16T00:20:00.127Z,15.43
2018-12-16T00:22:29.918Z,17.10
2018-12-16T00:24:57.797Z,16.67
2018-12-16T00:27:25.330Z,16.87
2018-12-16T00:29:52.927Z,17.77
2018-12-16T00:32:20.426Z,17.20
2018-12-16T00:34:47.922Z,17.43
2018-12-16T00:37:15.447Z,18.63
2018-12-16T00:39:42.957Z,16.77
2018-12-16T00:42:10.498Z,18.00
2018-12-16T00:44:38.038Z,18.50
2018-12-16T00:47:05.626Z,17.50
2018-12-16T00:49:33.159Z,17.50
2018-12-16T00:52:00.690Z,17.60
2018-12-16T00:54:28.214Z,18.13
2018-12-16T00:56:55.762Z,19.07
2018-12-16T00:59:23.332Z,18.93
2018-12-16T01:01:50.922Z,18.53
2018-12-16T01:04:18.776Z,19.00
2018-12-16T01:06:46.354Z,18.27
2018-12-16T01:09:13.899Z,18.40
2018-12-16T01:11:41.411Z,18.87
2018-12-16T01:14:09.084Z,18.03
2018-12-16T01:16:36.620Z,19.53
2018-12-16T01:19:04.234Z,18.57
2018-12-16T01:21:31.763Z,18.52
2018-12-16T01:23:59.262Z,19.40
2018-12-16T01:26:26.793Z,20.33
2018-12-16T01:28:54.429Z,18.73
2018-12-16T01:31:21.954Z,19.47
2018-12-16T01:33:49.490Z,18.40
2018-12-16T01:36:17.011Z,18.03
2018-12-16T01:38:44.570Z,19.77
2018-12-16T01:41:12.273Z,19.10
2018-12-16T01:43:39.801Z,18.17
2018-12-16T01:46:07.380Z,18.83
2018-12-16T01:48:34.887Z,18.37
2018-12-16T01:51:02.401Z,19.43
2018-12-16T01:53:29.931Z,20.43
2018-12-16T01:55:57.437Z,19.57
2018-12-16T01:58:25.051Z,20.53
2018-12-16T02:00:52.617Z,18.90
2018-12-16T02:03:20.137Z,21.37
2018-12-16T02:05:47.679Z,20.03
2018-12-16T02:08:15.171Z,21.37
2018-12-16T02:10:42.765Z,19.43
2018-12-16T02:13:10.609Z,18.90
2018-12-16T02:15:38.236Z,20.03
2018-12-16T02:18:05.793Z,20.10
2018-12-16T02:20:33.370Z,19.47
2018-12-16T02:23:00.924Z,21.93
2018-12-16T02:25:28.414Z,20.60
2018-12-16T02:27:56.011Z,20.60
2018-12-16T02:30:28.578Z,20.07
2018-12-16T02:32:56.243Z,20.17
2018-12-16T02:35:23.749Z,20.87
2018-12-16T02:37:51.284Z,21.87
2018-12-16T02:40:18.876Z,21.33
2018-12-16T02:42:46.395Z,21.97
2018-12-16T02:45:14.094Z,21.53
2018-12-16T02:47:41.680Z,22.23
2018-12-16T02:50:09.317Z,19.97
2018-12-16T02:52:36.835Z,23.13
2018-12-16T02:55:04.424Z,20.80
2018-12-16T02:57:31.958Z,21.70
2018-12-16T02:59:59.476Z,22.10
2018-12-16T03:02:27.075Z,23.17
2018-12-16T03:04:54.633Z,21.23
2018-12-16T03:07:22.191Z,21.10
2018-12-16T03:09:49.798Z,21.77
2018-12-16T03:12:17.429Z,22.40
2018-12-16T03:14:44.974Z,22.00
2018-12-16T03:17:12.739Z,22.93
2018-12-16T03:19:40.353Z,21.67
2018-12-16T03:22:07.851Z,22.57
2018-12-16T03:24:35.460Z,21.40
2018-12-16T03:27:03.008Z,20.97
2018-12-16T03:29:30.537Z,21.77
2018-12-16T03:31:58.768Z,22.57
2018-12-16T03:34:26.394Z,21.40
2018-12-16T03:36:53.897Z,22.93
2018-12-16T03:39:21.509Z,23.63
2018-12-16T03:41:49.109Z,23.23
2018-12-16T03:44:16.672Z,22.27
2018-12-16T03:46:44.364Z,22.03
2018-12-16T03:49:11.861Z,24.13
2018-12-16T03:51:40.103Z,22.53
2018-12-16T03:54:07.649Z,24.20
2018-12-16T03:56:35.173Z,22.07
2018-12-16T03:59:12.356Z,24.90
2018-12-16T04:01:39.892Z,25.33
2018-12-16T04:04:07.429Z,24.60
2018-12-16T04:06:34.979Z,23.70
2018-12-16T04:09:03.611Z,24.17
2018-12-16T04:11:31.138Z,24.77
2018-12-16T04:13:58.668Z,23.03
2018-12-16T04:16:26.224Z,24.57
2018-12-16T04:18:53.759Z,24.47
2018-12-16T04:21:21.358Z,25.30
2018-12-16T04:23:48.919Z,24.00
2018-12-16T04:26:16.435Z,25.23
2018-12-16T04:28:44.210Z,26.03
2018-12-16T04:31:11.711Z,24.97
2018-12-16T04:33:39.230Z,24.63
2018-12-16T04:36:06.804Z,23.70
2018-12-16T04:38:34.303Z,25.17
2018-12-16T04:41:02.530Z,25.95
2018-12-16T04:43:30.053Z,24.67
2018-12-16T04:45:57.557Z,25.87
2018-12-16T04:48:25.125Z,24.17
2018-12-16T04:50:52.656Z,25.07
2018-12-16T04:53:20.190Z,25.63
2018-12-16T04:55:47.715Z,24.70
2018-12-16T04:58:15.319Z,24.10
2018-12-16T05:00:42.835Z,24.07
2018-12-16T05:03:10.360Z,24.17
2018-12-16T05:05:37.934Z,24.47
2018-12-16T05:08:05.512Z,24.23
2018-12-16T05:10:33.791Z,23.17
2018-12-16T05:13:01.863Z,24.33
2018-12-16T05:15:29.443Z,24.30
2018-12-16T05:17:57.109Z,22.57
2018-12-16T05:20:24.624Z,23.33
2018-12-16T05:22:52.148Z,22.40
2018-12-16T05:25:19.707Z,23.27
2018-12-16T05:27:47.255Z,23.23
2018-12-16T05:30:14.811Z,21.70
2018-12-16T05:32:42.414Z,22.67
2018-12-16T05:35:09.996Z,22.27
2018-12-16T05:37:37.586Z,22.30
2018-12-16T05:40:05.374Z,22.57
2018-12-16T05:42:32.921Z,22.20
2018-12-16T05:45:00.448Z,21.50
2018-12-16T05:47:27.974Z,22.03
2018-12-16T05:49:55.637Z,22.47
2018-12-16T05:52:23.150Z,21.40
2018-12-16T05:54:50.749Z,22.57
2018-12-16T05:57:18.297Z,22.77
2018-12-16T05:59:45.833Z,22.07
2018-12-16T06:02:13.335Z,19.93
2018-12-16T06:04:40.891Z,22.58
2018-12-16T06:07:08.409Z,22.07
2018-12-16T06:09:36.053Z,20.70
2018-12-16T06:12:03.608Z,21.10
2018-12-16T06:14:31.117Z,20.70
2018-12-16T06:16:58.637Z,21.70
2018-12-16T06:19:26.187Z,22.47
2018-12-16T06:21:53.713Z,21.93
2018-12-16T06:24:21.230Z,21.67
2018-12-16T06:26:48.849Z,21.07
2018-12-16T06:29:16.364Z,22.10
2018-12-16T06:31:43.871Z,20.20
2018-12-16T06:34:11.439Z,21.70
2018-12-16T06:36:39.025Z,22.17
2018-12-16T06:39:07.295Z,21.43
2018-12-16T06:41:34.838Z,22.30
2018-12-16T06:44:02.395Z,21.80
2018-12-16T06:46:29.914Z,21.93
2018-12-16T06:48:57.459Z,21.47
2018-12-16T06:51:25.026Z,22.47
2018-12-16T06:53:52.534Z,20.07
2018-12-16T06:56:20.091Z,21.63
2018-12-16T06:58:47.624Z,21.60
2018-12-16T07:01:16.050Z,23.60
2018-12-16T07:03:43.797Z,22.23
2018-12-16T07:06:11.388Z,20.43
2018-12-16T07:08:38.891Z,22.53
2018-12-16T07:11:06.395Z,22.60
2018-12-16T07:13:34.040Z,22.00
2018-12-16T07:16:01.549Z,23.90
2018-12-16T07:18:29.090Z,23.10
2018-12-16T07:20:56.625Z,21.70
2018-12-16T07:23:24.145Z,22.77
2018-12-16T07:25:51.672Z,22.37
2018-12-16T07:28:19.208Z,22.77
2018-12-16T07:30:46.858Z,21.87
2018-12-16T07:33:14.774Z,23.77
2018-12-16T07:35:42.318Z,23.50
2018-12-16T07:38:09.901Z,23.77
2018-12-16T07:40:37.435Z,23.60
2018-12-16T07:43:05.055Z,24.33
2018-12-16T07:45:32.597Z,24.27
2018-12-16T07:48:00.614Z,24.80
2018-12-16T07:50:28.138Z,24.33
2018-12-16T07:52:57.067Z,23.60
2018-12-16T07:55:24.822Z,25.40
2018-12-16T07:57:52.317Z,25.73
2018-12-16T08:00:20.113Z,25.17
2018-12-16T08:02:47.791Z,25.90
2018-12-16T08:05:15.342Z,25.53
2018-12-16T08:07:42.864Z,25.13
2018-12-16T08:10:11.000Z,26.83
2018-12-16T08:12:38.554Z,26.07
2018-12-16T08:15:06.486Z,25.73
2018-12-16T08:17:34.072Z,27.37
2018-12-16T08:20:01.608Z,25.50
2018-12-16T08:22:29.096Z,25.00
2018-12-16T08:24:56.626Z,26.50
2018-12-16T08:27:24.108Z,26.00
2018-12-16T08:29:51.601Z,25.93
2018-12-16T08:32:19.262Z,26.93
2018-12-16T08:34:46.791Z,25.27
2018-12-16T08:37:14.302Z,25.67
2018-12-16T08:39:42.596Z,25.97
2018-12-16T08:42:10.227Z,27.53
2018-12-16T08:44:37.750Z,27.10
2018-12-16T08:47:05.296Z,26.83
2018-12-16T08:49:33.124Z,26.07
2018-12-16T08:52:00.638Z,26.43
2018-12-16T08:54:30.205Z,26.40
2018-12-16T08:56:57.835Z,27.53
2018-12-16T08:59:25.365Z,26.53
2018-12-16T09:01:52.878Z,26.27
2018-12-16T09:04:20.715Z,26.70
2018-12-16T09:06:48.258Z,26.60
2018-12-16T09:09:15.863Z,26.07
2018-12-16T09:11:43.879Z,25.08
2018-12-16T09:14:11.379Z,27.33
2018-12-16T09:16:39.009Z,26.90
2018-12-16T09:19:06.539Z,26.17
2018-12-16T09:21:34.086Z,25.43
2018-12-16T09:24:01.622Z,26.73
2018-12-16T09:26:29.383Z,25.92
2018-12-16T09:28:56.950Z,25.80
2018-12-16T09:31:24.474Z,24.70
2018-12-16T09:33:52.669Z,25.53
2018-12-16T09:36:20.185Z,25.43
2018-12-16T09:38:47.730Z,24.57
2018-12-16T09:41:15.282Z,23.50
2018-12-16T09:43:42.808Z,24.80
2018-12-16T09:46:10.372Z,25.20
2018-12-16T09:48:37.895Z,23.77
2018-12-16T09:51:05.404Z,24.03
2018-12-16T09:53:32.913Z,23.53
2018-12-16T09:56:00.455Z,22.67
2018-12-16T09:58:28.013Z,22.80
2018-12-16T10:00:55.512Z,22.87
2018-12-16T10:03:23.032Z,22.00
2018-12-16T10:05:50.550Z,21.63
2018-12-16T10:08:18.072Z,21.33
2018-12-16T10:10:46.227Z,20.40
2018-12-16T10:13:13.725Z,22.80
2018-12-16T10:15:41.248Z,21.93
2018-12-16T10:18:08.747Z,21.40
2018-12-16T10:20:36.310Z,21.70
2018-12-16T10:23:03.997Z,21.90
2018-12-16T10:25:31.525Z,21.70
2018-12-16T10:27:59.045Z,21.93
2018-12-16T10:30:26.589Z,21.60
2018-12-16T10:32:54.099Z,21.63
2018-12-16T10:35:21.631Z,22.00
2018-12-16T10:37:49.151Z,21.60
2018-12-16T10:40:17.672Z,20.90
2018-12-16T10:42:45.359Z,21.33
2018-12-16T10:45:12.934Z,20.97
2018-12-16T10:47:40.459Z,21.10
2018-12-16T10:50:08.266Z,21.20
2018-12-16T10:52:35.845Z,22.13
2018-12-16T10:55:04.042Z,20.73
2018-12-16T10:57:31.589Z,20.70
2018-12-16T10:59:59.172Z,22.20
2018-12-16T11:02:26.743Z,22.40
2018-12-16T11:04:55.137Z,21.80
2018-12-16T11:07:22.677Z,21.50
2018-12-16T11:09:50.179Z,21.30
2018-12-16T11:12:17.831Z,21.20
2018-12-16T11:14:45.348Z,21.50
2018-12-16T11:17:12.946Z,20.97
2018-12-16T11:19:41.155Z,21.30
2018-12-16T11:22:08.707Z,20.37
2018-12-16T11:24:36.236Z,20.17
2018-12-16T11:27:03.821Z,20.60
2018-12-16T11:29:31.348Z,21.27
2018-12-16T11:31:58.891Z,22.10
2018-12-16T11:34:26.486Z,21.63
2018-12-16T11:36:54.061Z,21.30
2018-12-16T11:39:21.633Z,21.70
2018-12-16T11:41:50.097Z,20.70
2018-12-16T11:44:17.767Z,21.30
2018-12-16T11:46:45.293Z,20.80
2018-12-16T11:49:13.623Z,22.03
2018-12-16T11:51:41.522Z,20.00
2018-12-16T11:54:09.068Z,22.50
2018-12-16T11:56:36.670Z,23.63
2018-12-16T11:59:04.539Z,20.70
2018-12-16T12:01:32.087Z,19.93
2018-12-16T12:03:59.695Z,21.80
2018-12-16T12:06:27.231Z,22.67
2018-12-16T12:08:54.852Z,22.17
2018-12-16T12:11:22.502Z,21.53
2018-12-16T12:13:50.084Z,21.00
2018-12-16T12:16:17.598Z,21.20
2018-12-16T12:18:45.262Z,22.10
2018-12-16T12:21:12.811Z,21.30
2018-12-16T12:23:40.363Z,21.13
2018-12-16T12:26:08.632Z,20.20
2018-12-16T12:28:36.476Z,20.63
2018-12-16T12:31:04.449Z,21.30
2018-12-16T12:33:32.969Z,22.23
2018-12-16T12:36:01.553Z,21.47
2018-12-16T12:38:30.486Z,22.00
2018-12-16T12:40:58.054Z,21.47
2018-12-16T12:43:25.571Z,21.30
2018-12-16T12:45:53.180Z,21.97
2018-12-16T12:48:20.702Z,21.80
2018-12-16T12:50:48.233Z,21.27
2018-12-16T12:53:15.804Z,22.50
2018-12-16T12:55:43.352Z,22.47
2018-12-16T12:58:10.897Z,21.50
2018-12-16T13:00:38.496Z,21.90
2018-12-16T13:03:06.122Z,20.80
2018-12-16T13:05:36.978Z,21.07
2018-12-16T13:08:03.296Z,22.17
2018-12-16T13:10:31.456Z,22.90
2018-12-16T13:12:58.991Z,21.27
2018-12-16T13:15:26.529Z,21.73
2018-12-16T13:17:54.462Z,23.07
2018-12-16T13:20:22.006Z,20.97
2018-12-16T13:22:49.535Z,22.97
2018-12-16T13:25:34.017Z,21.83
2018-12-16T13:27:59.236Z,19.87
2018-12-16T13:30:26.773Z,20.27
2018-12-16T13:32:55.091Z,20.43
2018-12-16T13:35:22.632Z,20.97
2018-12-16T13:37:50.335Z,21.90
2018-12-16T13:40:18.004Z,21.17
2018-12-16T13:42:45.709Z,21.53
2018-12-16T13:45:13.283Z,21.73
2018-12-16T13:47:40.862Z,21.20
2018-12-16T13:50:08.600Z,22.23
2018-12-16T13:52:37.477Z,21.47
2018-12-16T13:55:05.290Z,21.73
2018-12-16T13:57:34.132Z,22.43
2018-12-16T14:00:01.663Z,21.53
2018-12-16T14:02:29.202Z,20.93
2018-12-16T14:04:56.741Z,22.60
2018-12-16T14:07:24.320Z,20.67
2018-12-16T14:09:52.018Z,21.40
2018-12-16T14:12:19.580Z,22.67
2018-12-16T14:14:47.126Z,22.10
2018-12-16T14:17:14.719Z,22.20
2018-12-16T14:19:42.860Z,22.43
2018-12-16T14:22:10.432Z,22.87
2018-12-16T14:24:40.070Z,23.17
2018-12-16T14:27:08.827Z,23.03
2018-12-16T14:29:36.866Z,23.13
2018-12-16T14:32:04.526Z,23.20
2018-12-16T14:34:32.131Z,23.30
2018-12-16T14:36:59.708Z,22.87
2018-12-16T14:39:27.909Z,24.23
2018-12-16T14:41:55.423Z,23.20
2018-12-16T14:44:25.856Z,22.63
2018-12-16T14:46:53.380Z,24.87
2018-12-16T14:49:20.928Z,23.27
2018-12-16T14:51:48.487Z,23.77
2018-12-16T14:54:16.961Z,22.90
2018-12-16T14:56:44.561Z,22.73
2018-12-16T14:59:12.668Z,23.97
2018-12-16T15:01:40.233Z,24.47
2018-12-16T15:04:07.793Z,23.20
2018-12-16T15:06:35.358Z,23.23
2018-12-16T15:09:03.619Z,25.47
2018-12-16T15:11:31.184Z,24.13
2018-12-16T15:13:59.775Z,24.27
2018-12-16T15:16:28.644Z,23.20
2018-12-16T15:18:56.841Z,24.47
2018-12-16T15:21:24.359Z,23.80
2018-12-16T15:23:51.945Z,25.47
2018-12-16T15:26:19.567Z,24.57
2018-12-16T15:28:47.120Z,24.40
2018-12-16T15:31:15.281Z,24.20
2018-12-16T15:33:42.815Z,23.23
2018-12-16T15:36:10.387Z,24.00
2018-12-16T15:38:38.453Z,24.70
2018-12-16T15:41:06.027Z,25.70
2018-12-16T15:43:33.683Z,25.03
2018-12-16T15:46:01.839Z,25.20
2018-12-16T15:48:29.536Z,25.77
2018-12-16T15:50:57.139Z,24.80
2018-12-16T15:53:24.781Z,25.83
2018-12-16T15:55:53.134Z,25.73
2018-12-16T15:58:20.697Z,25.90
2018-12-16T16:00:48.309Z,25.30
2018-12-16T16:03:15.836Z,25.40
2018-12-16T16:05:43.479Z,27.37
2018-12-16T16:08:16.472Z,25.17
2018-12-16T16:10:40.633Z,26.55
2018-12-16T16:13:08.173Z,28.07
2018-12-16T16:15:35.782Z,27.10
2018-12-16T16:18:03.310Z,27.23
2018-12-16T16:20:32.168Z,27.77
2018-12-16T16:22:59.711Z,26.67
2018-12-16T16:25:27.250Z,28.37
2018-12-16T16:27:54.795Z,27.30
2018-12-16T16:30:22.329Z,26.50
2018-12-16T16:32:49.875Z,27.17
2018-12-16T16:35:17.495Z,27.77
2018-12-16T16:37:45.091Z,28.83
2018-12-16T16:40:12.827Z,26.63
2018-12-16T16:42:40.440Z,28.03
2018-12-16T16:45:08.063Z,28.47
2018-12-16T16:47:35.644Z,28.27
2018-12-16T16:50:05.078Z,27.23
2018-12-16T16:52:32.726Z,29.23
2018-12-16T16:55:00.245Z,28.07
2018-12-16T16:57:28.477Z,27.63
2018-12-16T16:59:56.021Z,30.20
2018-12-16T17:02:23.637Z,30.70
2018-12-16T17:04:51.177Z,30.57
2018-12-16T17:07:18.760Z,29.30
2018-12-16T17:09:46.945Z,29.40
2018-12-16T17:12:14.870Z,29.60
2018-12-16T17:14:43.251Z,30.77
2018-12-16T17:17:10.878Z,30.30
2018-12-16T17:19:38.423Z,30.97
2018-12-16T17:22:06.366Z,30.13
2018-12-16T17:24:34.012Z,30.63
2018-12-16T17:27:01.636Z,30.97
2018-12-16T17:29:29.191Z,32.13
2018-12-16T17:31:56.827Z,30.80
2018-12-16T17:34:24.398Z,32.17
2018-12-16T17:36:52.875Z,30.47
2018-12-16T17:39:20.429Z,29.63
2018-12-16T17:41:48.048Z,30.87
2018-12-16T17:44:15.687Z,30.13
2018-12-16T17:46:43.497Z,32.60
2018-12-16T17:49:11.045Z,29.87
2018-12-16T17:51:39.741Z,29.43
2018-12-16T17:54:07.306Z,30.97
2018-12-16T17:56:37.161Z,28.93
2018-12-16T17:59:05.196Z,29.40
2018-12-16T18:01:33.402Z,29.97
2018-12-16T18:04:00.930Z,30.13
2018-12-16T18:06:28.498Z,30.67
2018-12-16T18:08:56.084Z,31.07
2018-12-16T18:11:24.335Z,30.97
2018-12-16T18:13:56.258Z,30.97
2018-12-16T18:16:23.829Z,28.53
2018-12-16T18:18:51.366Z,30.73
2018-12-16T18:21:18.940Z,30.90
2018-12-16T18:23:47.216Z,29.03
2018-12-16T18:26:14.755Z,29.97
2018-12-16T18:28:42.301Z,29.20
2018-12-16T18:31:09.856Z,30.60
2018-12-16T18:33:38.039Z,30.37
2018-12-16T18:36:05.657Z,30.57
2018-12-16T18:38:34.019Z,29.07
2018-12-16T18:41:01.721Z,28.20
2018-12-16T18:43:29.335Z,30.20
2018-12-16T18:45:56.899Z,29.30
2018-12-16T18:48:25.183Z,28.50
2018-12-16T18:50:53.363Z,28.10
2018-12-16T18:53:21.252Z,29.90
2018-12-16T18:55:51.029Z,27.77
2018-12-16T18:58:18.567Z,29.07
2018-12-16T19:00:46.152Z,28.93
2018-12-16T19:03:13.775Z,27.97
2018-12-16T19:05:41.318Z,27.87
2018-12-16T19:08:09.734Z,28.37
2018-12-16T19:10:37.339Z,29.03
2018-12-16T19:13:05.212Z,28.43
2018-12-16T19:15:33.498Z,26.43
2018-12-16T19:18:01.065Z,28.17
2018-12-16T19:20:28.731Z,27.97
2018-12-16T19:22:57.646Z,27.30
2018-12-16T19:25:25.939Z,28.30
2018-12-16T19:27:53.475Z,27.10
2018-12-16T19:30:23.158Z,27.57
2018-12-16T19:32:50.733Z,27.20
2018-12-16T19:35:18.414Z,27.90
2018-12-16T19:37:46.053Z,29.50
2018-12-16T19:40:13.981Z,30.33
2018-12-16T19:42:41.534Z,31.00
2018-12-16T19:45:09.177Z,29.87
2018-12-16T19:47:36.781Z,30.23
2018-12-16T19:50:06.468Z,31.83
2018-12-16T19:52:35.703Z,30.97
2018-12-16T19:55:03.422Z,31.60
2018-12-16T19:57:31.116Z,31.90
2018-12-16T19:59:58.758Z,32.33
2018-12-16T20:02:26.458Z,30.13
2018-12-16T20:05:00.050Z,31.20
2018-12-16T20:07:27.584Z,29.57
2018-12-16T20:09:56.450Z,30.57
2018-12-16T20:12:23.984Z,31.17
2018-12-16T20:14:52.370Z,31.17
2018-12-16T20:17:19.895Z,30.88
2018-12-16T20:19:48.307Z,30.23
2018-12-16T20:22:16.466Z,30.57
2018-12-16T20:24:44.013Z,30.17
2018-12-16T20:27:12.166Z,30.07
2018-12-16T20:29:40.390Z,30.13
2018-12-16T20:32:08.051Z,29.63
2018-12-16T20:34:35.669Z,31.20
2018-12-16T20:37:03.247Z,30.03
2018-12-16T20:39:30.789Z,29.97
2018-12-16T20:41:58.315Z,30.03
2018-12-16T20:44:25.861Z,30.70
2018-12-16T20:46:54.543Z,29.93
2018-12-16T20:49:22.087Z,30.07
2018-12-16T20:51:49.759Z,31.30
2018-12-16T20:54:18.066Z,31.67
2018-12-16T20:56:47.055Z,31.43
2018-12-16T20:59:14.597Z,30.00
2018-12-16T21:01:44.122Z,28.77
2018-12-16T21:04:12.432Z,31.13
2018-12-16T21:06:40.004Z,31.20
2018-12-16T21:09:09.158Z,32.47
2018-12-16T21:11:43.471Z,30.27
2018-12-16T21:14:16.797Z,31.10
2018-12-16T21:16:50.747Z,29.27
2018-12-16T21:19:18.545Z,32.23
2018-12-16T21:21:46.090Z,29.67
2018-12-16T21:24:13.681Z,31.73
2018-12-16T21:26:41.451Z,33.20
2018-12-16T21:29:09.134Z,30.60
2018-12-16T21:31:37.313Z,30.00
2018-12-16T21:34:05.738Z,32.10
2018-12-16T21:36:33.363Z,30.93
2018-12-16T21:39:01.332Z,28.83
2018-12-16T21:41:28.928Z,30.70
2018-12-16T21:43:56.587Z,29.07
2018-12-16T21:46:24.317Z,29.97
2018-12-16T21:48:51.990Z,29.47
2018-12-16T21:51:19.534Z,32.00
2018-12-16T21:53:47.077Z,29.83
2018-12-16T21:56:14.936Z,30.60
2018-12-16T21:58:42.794Z,29.60
2018-12-16T22:01:10.331Z,29.80
2018-12-16T22:03:37.894Z,30.15
2018-12-16T22:06:05.507Z,30.17
2018-12-16T22:08:33.075Z,29.63
2018-12-16T22:11:00.626Z,30.87
2018-12-16T22:13:28.166Z,28.67
2018-12-16T22:15:55.806Z,28.53
2018-12-16T22:18:23.348Z,29.70
2018-12-16T22:20:51.922Z,29.73
2018-12-16T22:23:19.483Z,30.00
2018-12-16T22:25:47.735Z,28.63
2018-12-16T22:28:15.261Z,29.63
2018-12-16T22:30:42.922Z,28.33
2018-12-16T22:33:10.435Z,30.83
2018-12-16T22:35:37.974Z,28.07
2018-12-16T22:38:05.522Z,29.23
2018-12-16T22:40:34.233Z,28.30
2018-12-16T22:43:02.458Z,28.50
2018-12-16T22:45:30.019Z,29.00
2018-12-16T22:47:58.339Z,29.50
2018-12-16T22:50:25.903Z,28.53
2018-12-16T22:52:53.499Z,27.53
2018-12-16T22:55:21.112Z,27.80
2018-12-16T22:57:49.154Z,28.93
2018-12-16T23:00:17.744Z,27.00
2018-12-16T23:02:45.298Z,27.73
2018-12-16T23:05:12.906Z,29.13
2018-12-16T23:07:40.459Z,27.17
2018-12-16T23:10:08.066Z,28.77
2018-12-16T23:12:35.636Z,29.57
2018-12-16T23:15:03.367Z,27.77
2018-12-16T23:17:30.968Z,28.23
2018-12-16T23:20:04.360Z,28.13
2018-12-16T23:22:31.940Z,30.47
2018-12-16T23:24:59.807Z,29.30
2018-12-16T23:27:27.328Z,26.80
2018-12-16T23:29:54.825Z,29.30
2018-12-16T23:32:22.347Z,27.80
2018-12-16T23:34:50.825Z,28.20
2018-12-16T23:37:18.386Z,28.70
2018-12-16T23:39:45.935Z,27.10
2018-12-16T23:42:13.491Z,28.07
2018-12-16T23:44:40.987Z,28.27
2018-12-16T23:47:08.632Z,26.73
2018-12-16T23:49:36.713Z,26.50
2018-12-16T23:52:04.262Z,28.33
2018-12-16T23:54:31.811Z,26.93
2018-12-16T23:56:59.338Z,26.87
2018-12-16T23:59:26.854Z,27.97
